sensor_id;sensor_type;location;lat;lon;timestamp;temperature;humidity
35043;DHT22;21230;51.170;17.024;2023-06-10T00:01:24;15.30;99.90
35043;DHT22;21230;51.170;17.024;2023-06-10T00:03:50;15.20;99.90
35043;DHT22;21230;51.170;17.024;2023-06-10T00:06:17;15.10;99.90
35043;DHT22;21230;51.170;17.024;2023-06-10T00:08:43;15.10;99.90
35043;DHT22;21230;51.170;17.024;2023-06-10T00:11:08;15.10;99.90
35043;DHT22;21230;51.170;17.024;2023-06-10T00:13:34;15.10;99.90
35043;DHT22;21230;51.170;17.024;2023-06-10T00:16:00;15.10;99.90
35043;DHT22;21230;51.170;17.024;2023-06-10T00:18:25;15.20;99.90
35043;DHT22;21230;51.170;17.024;2023-06-10T00:20:52;15.20;99.90
35043;DHT22;21230;51.170;17.024;2023-06-10T00:23:18;15.20;99.90
35043;DHT22;21230;51.170;17.024;2023-06-10T00:25:44;15.10;99.90
35043;DHT22;21230;51.170;17.024;2023-06-10T00:28:09;15.00;99.90
35043;DHT22;21230;51.170;17.024;2023-06-10T00:30:35;15.00;99.90
35043;DHT22;21230;51.170;17.024;2023-06-10T00:33:01;14.90;99.90
35043;DHT22;21230;51.170;17.024;2023-06-10T00:35:26;14.80;99.90
35043;DHT22;21230;51.170;17.024;2023-06-10T00:37:52;14.80;99.90
35043;DHT22;21230;51.170;17.024;2023-06-10T00:40:17;14.70;99.90
35043;DHT22;21230;51.170;17.024;2023-06-10T00:42:43;14.70;99.90
35043;DHT22;21230;51.170;17.024;2023-06-10T00:45:09;14.70;99.90
35043;DHT22;21230;51.170;17.024;2023-06-10T00:47:34;14.70;99.90
35043;DHT22;21230;51.170;17.024;2023-06-10T00:50:01;14.70;99.90
35043;DHT22;21230;51.170;17.024;2023-06-10T00:52:27;14.70;99.90
35043;DHT22;21230;51.170;17.024;2023-06-10T00:54:53;14.70;99.90
35043;DHT22;21230;51.170;17.024;2023-06-10T00:57:19;14.70;99.90
35043;DHT22;21230;51.170;17.024;2023-06-10T00:59:49;14.70;99.90
35043;DHT22;21230;51.170;17.024;2023-06-10T01:02:15;14.70;99.90
35043;DHT22;21230;51.170;17.024;2023-06-10T01:04:41;14.70;99.90
35043;DHT22;21230;51.170;17.024;2023-06-10T01:07:12;14.70;99.90
35043;DHT22;21230;51.170;17.024;2023-06-10T01:09:58;14.70;99.90
35043;DHT22;21230;51.170;17.024;2023-06-10T01:12:44;14.80;99.90
35043;DHT22;21230;51.170;17.024;2023-06-10T01:15:17;14.80;99.90
35043;DHT22;21230;51.170;17.024;2023-06-10T01:17:59;14.80;99.90
35043;DHT22;21230;51.170;17.024;2023-06-10T01:20:25;14.90;99.90
35043;DHT22;21230;51.170;17.024;2023-06-10T01:22:55;14.90;99.90
35043;DHT22;21230;51.170;17.024;2023-06-10T01:25:23;14.90;99.90
35043;DHT22;21230;51.170;17.024;2023-06-10T01:28:09;14.90;99.90
35043;DHT22;21230;51.170;17.024;2023-06-10T01:30:48;14.90;99.90
35043;DHT22;21230;51.170;17.024;2023-06-10T01:33:14;14.90;99.90
35043;DHT22;21230;51.170;17.024;2023-06-10T01:35:41;14.90;99.90
35043;DHT22;21230;51.170;17.024;2023-06-10T01:38:08;15.00;99.90
35043;DHT22;21230;51.170;17.024;2023-06-10T01:40:35;14.90;99.90
35043;DHT22;21230;51.170;17.024;2023-06-10T01:43:01;14.90;99.90
35043;DHT22;21230;51.170;17.024;2023-06-10T01:45:27;15.00;99.90
35043;DHT22;21230;51.170;17.024;2023-06-10T01:47:52;15.00;99.90
35043;DHT22;21230;51.170;17.024;2023-06-10T01:50:18;15.10;99.90
35043;DHT22;21230;51.170;17.024;2023-06-10T01:52:45;15.10;99.90
35043;DHT22;21230;51.170;17.024;2023-06-10T01:55:10;15.20;99.90
35043;DHT22;21230;51.170;17.024;2023-06-10T01:57:36;15.20;99.90
35043;DHT22;21230;51.170;17.024;2023-06-10T02:00:01;15.20;99.90
35043;DHT22;21230;51.170;17.024;2023-06-10T02:02:28;15.30;99.90
35043;DHT22;21230;51.170;17.024;2023-06-10T02:04:54;15.30;99.90
35043;DHT22;21230;51.170;17.024;2023-06-10T02:07:20;15.30;99.90
35043;DHT22;21230;51.170;17.024;2023-06-10T02:09:46;15.30;99.90
35043;DHT22;21230;51.170;17.024;2023-06-10T02:12:11;15.30;99.90
35043;DHT22;21230;51.170;17.024;2023-06-10T02:14:37;15.30;99.90
35043;DHT22;21230;51.170;17.024;2023-06-10T02:17:03;15.30;99.90
35043;DHT22;21230;51.170;17.024;2023-06-10T02:19:29;15.30;99.90
35043;DHT22;21230;51.170;17.024;2023-06-10T02:21:56;15.30;99.90
35043;DHT22;21230;51.170;17.024;2023-06-10T02:24:21;15.30;99.90
35043;DHT22;21230;51.170;17.024;2023-06-10T02:26:47;15.30;99.90
35043;DHT22;21230;51.170;17.024;2023-06-10T02:29:13;15.30;99.90
35043;DHT22;21230;51.170;17.024;2023-06-10T02:31:39;15.30;99.90
35043;DHT22;21230;51.170;17.024;2023-06-10T02:34:04;15.40;99.90
35043;DHT22;21230;51.170;17.024;2023-06-10T02:36:30;15.40;99.90
35043;DHT22;21230;51.170;17.024;2023-06-10T02:38:56;15.40;99.90
35043;DHT22;21230;51.170;17.024;2023-06-10T02:41:22;15.40;99.90
35043;DHT22;21230;51.170;17.024;2023-06-10T02:43:48;15.30;99.90
35043;DHT22;21230;51.170;17.024;2023-06-10T02:46:14;15.30;99.90
35043;DHT22;21230;51.170;17.024;2023-06-10T02:48:42;15.40;99.90
35043;DHT22;21230;51.170;17.024;2023-06-10T02:51:11;15.40;99.90
35043;DHT22;21230;51.170;17.024;2023-06-10T02:53:37;15.30;99.90
35043;DHT22;21230;51.170;17.024;2023-06-10T02:56:03;15.30;99.90
35043;DHT22;21230;51.170;17.024;2023-06-10T02:58:29;15.40;99.90
35043;DHT22;21230;51.170;17.024;2023-06-10T03:00:54;15.40;99.90
35043;DHT22;21230;51.170;17.024;2023-06-10T03:03:20;15.40;99.90
35043;DHT22;21230;51.170;17.024;2023-06-10T03:05:48;15.40;99.90
35043;DHT22;21230;51.170;17.024;2023-06-10T03:08:13;15.40;99.90
35043;DHT22;21230;51.170;17.024;2023-06-10T03:10:39;15.40;99.90
35043;DHT22;21230;51.170;17.024;2023-06-10T03:13:05;15.40;99.90
35043;DHT22;21230;51.170;17.024;2023-06-10T03:15:30;15.40;99.90
35043;DHT22;21230;51.170;17.024;2023-06-10T03:18:01;15.40;99.90
35043;DHT22;21230;51.170;17.024;2023-06-10T03:20:27;15.40;99.90
35043;DHT22;21230;51.170;17.024;2023-06-10T03:22:54;15.40;99.90
35043;DHT22;21230;51.170;17.024;2023-06-10T03:25:19;15.40;99.90
35043;DHT22;21230;51.170;17.024;2023-06-10T03:27:46;15.50;99.90
35043;DHT22;21230;51.170;17.024;2023-06-10T03:30:12;15.50;99.90
35043;DHT22;21230;51.170;17.024;2023-06-10T03:32:38;15.60;99.90
35043;DHT22;21230;51.170;17.024;2023-06-10T03:35:04;15.60;99.90
35043;DHT22;21230;51.170;17.024;2023-06-10T03:37:29;15.60;99.90
35043;DHT22;21230;51.170;17.024;2023-06-10T03:39:55;15.60;99.90
35043;DHT22;21230;51.170;17.024;2023-06-10T03:42:21;15.60;99.90
35043;DHT22;21230;51.170;17.024;2023-06-10T03:44:46;15.60;99.90
35043;DHT22;21230;51.170;17.024;2023-06-10T03:47:12;15.70;99.90
35043;DHT22;21230;51.170;17.024;2023-06-10T03:49:38;15.70;99.90
35043;DHT22;21230;51.170;17.024;2023-06-10T03:52:05;15.80;99.90
35043;DHT22;21230;51.170;17.024;2023-06-10T03:54:31;15.80;99.90
35043;DHT22;21230;51.170;17.024;2023-06-10T03:56:59;15.90;99.90
35043;DHT22;21230;51.170;17.024;2023-06-10T03:59:25;15.90;99.90
35043;DHT22;21230;51.170;17.024;2023-06-10T04:01:51;15.90;99.90
35043;DHT22;21230;51.170;17.024;2023-06-10T04:04:23;16.00;99.90
35043;DHT22;21230;51.170;17.024;2023-06-10T04:06:48;16.10;99.90
35043;DHT22;21230;51.170;17.024;2023-06-10T04:09:14;16.10;99.90
35043;DHT22;21230;51.170;17.024;2023-06-10T04:11:41;16.20;99.90
35043;DHT22;21230;51.170;17.024;2023-06-10T04:14:07;16.30;99.90
35043;DHT22;21230;51.170;17.024;2023-06-10T04:16:33;16.30;99.90
35043;DHT22;21230;51.170;17.024;2023-06-10T04:18:59;16.40;99.90
35043;DHT22;21230;51.170;17.024;2023-06-10T04:21:26;16.40;99.90
35043;DHT22;21230;51.170;17.024;2023-06-10T04:23:51;16.40;99.90
35043;DHT22;21230;51.170;17.024;2023-06-10T04:26:17;16.50;99.90
35043;DHT22;21230;51.170;17.024;2023-06-10T04:28:43;16.50;99.90
35043;DHT22;21230;51.170;17.024;2023-06-10T04:31:09;16.50;99.90
35043;DHT22;21230;51.170;17.024;2023-06-10T04:33:35;16.60;99.90
35043;DHT22;21230;51.170;17.024;2023-06-10T04:36:01;16.60;99.90
35043;DHT22;21230;51.170;17.024;2023-06-10T04:38:26;16.60;99.90
35043;DHT22;21230;51.170;17.024;2023-06-10T04:40:52;16.70;99.90
35043;DHT22;21230;51.170;17.024;2023-06-10T04:43:18;16.70;99.90
35043;DHT22;21230;51.170;17.024;2023-06-10T04:45:43;16.70;99.90
35043;DHT22;21230;51.170;17.024;2023-06-10T04:48:12;16.70;99.90
35043;DHT22;21230;51.170;17.024;2023-06-10T04:50:38;16.70;99.90
35043;DHT22;21230;51.170;17.024;2023-06-10T04:53:04;16.70;99.90
35043;DHT22;21230;51.170;17.024;2023-06-10T04:55:30;16.70;99.90
35043;DHT22;21230;51.170;17.024;2023-06-10T04:57:55;16.70;99.90
35043;DHT22;21230;51.170;17.024;2023-06-10T05:00:21;16.70;99.90
35043;DHT22;21230;51.170;17.024;2023-06-10T05:02:46;16.80;99.90
35043;DHT22;21230;51.170;17.024;2023-06-10T05:05:17;16.80;99.90
35043;DHT22;21230;51.170;17.024;2023-06-10T05:07:43;16.80;99.90
35043;DHT22;21230;51.170;17.024;2023-06-10T05:10:09;16.80;99.90
35043;DHT22;21230;51.170;17.024;2023-06-10T05:12:35;16.90;99.90
35043;DHT22;21230;51.170;17.024;2023-06-10T05:15:00;16.90;99.90
35043;DHT22;21230;51.170;17.024;2023-06-10T05:17:26;16.90;99.90
35043;DHT22;21230;51.170;17.024;2023-06-10T05:19:52;17.00;99.90
35043;DHT22;21230;51.170;17.024;2023-06-10T05:22:18;17.00;99.90
35043;DHT22;21230;51.170;17.024;2023-06-10T05:24:44;17.00;99.90
35043;DHT22;21230;51.170;17.024;2023-06-10T05:27:10;17.10;99.90
35043;DHT22;21230;51.170;17.024;2023-06-10T05:29:35;17.10;99.90
35043;DHT22;21230;51.170;17.024;2023-06-10T05:32:01;17.20;99.90
35043;DHT22;21230;51.170;17.024;2023-06-10T05:34:31;17.30;99.90
35043;DHT22;21230;51.170;17.024;2023-06-10T05:36:57;17.40;99.90
35043;DHT22;21230;51.170;17.024;2023-06-10T05:39:23;17.50;99.90
35043;DHT22;21230;51.170;17.024;2023-06-10T05:41:48;17.60;99.90
35043;DHT22;21230;51.170;17.024;2023-06-10T05:44:14;17.70;99.90
35043;DHT22;21230;51.170;17.024;2023-06-10T05:46:40;17.80;99.90
35043;DHT22;21230;51.170;17.024;2023-06-10T05:49:05;17.90;99.90
35043;DHT22;21230;51.170;17.024;2023-06-10T05:51:31;17.90;99.90
35043;DHT22;21230;51.170;17.024;2023-06-10T05:53:57;18.00;99.90
35043;DHT22;21230;51.170;17.024;2023-06-10T05:56:22;18.10;99.90
35043;DHT22;21230;51.170;17.024;2023-06-10T05:58:48;18.20;99.90
35043;DHT22;21230;51.170;17.024;2023-06-10T06:01:14;18.20;99.90
35043;DHT22;21230;51.170;17.024;2023-06-10T06:03:40;18.30;99.90
35043;DHT22;21230;51.170;17.024;2023-06-10T06:06:06;18.40;99.90
35043;DHT22;21230;51.170;17.024;2023-06-10T06:08:32;18.50;99.90
35043;DHT22;21230;51.170;17.024;2023-06-10T06:10:57;18.70;99.90
35043;DHT22;21230;51.170;17.024;2023-06-10T06:13:23;18.80;99.90
35043;DHT22;21230;51.170;17.024;2023-06-10T06:15:49;19.00;99.90
35043;DHT22;21230;51.170;17.024;2023-06-10T06:18:15;19.00;99.90
35043;DHT22;21230;51.170;17.024;2023-06-10T06:20:41;19.20;99.90
35043;DHT22;21230;51.170;17.024;2023-06-10T06:23:06;19.30;99.90
35043;DHT22;21230;51.170;17.024;2023-06-10T06:25:35;19.30;99.90
35043;DHT22;21230;51.170;17.024;2023-06-10T06:28:01;19.40;99.90
35043;DHT22;21230;51.170;17.024;2023-06-10T06:30:30;19.40;99.90
35043;DHT22;21230;51.170;17.024;2023-06-10T06:32:55;19.50;99.90
35043;DHT22;21230;51.170;17.024;2023-06-10T06:35:21;19.50;99.90
35043;DHT22;21230;51.170;17.024;2023-06-10T06:37:47;19.50;99.90
35043;DHT22;21230;51.170;17.024;2023-06-10T06:40:12;19.50;99.90
35043;DHT22;21230;51.170;17.024;2023-06-10T06:42:38;19.50;99.90
35043;DHT22;21230;51.170;17.024;2023-06-10T06:45:04;19.60;99.90
35043;DHT22;21230;51.170;17.024;2023-06-10T06:47:30;19.60;99.90
35043;DHT22;21230;51.170;17.024;2023-06-10T06:49:55;19.60;99.90
35043;DHT22;21230;51.170;17.024;2023-06-10T06:52:21;19.70;99.90
35043;DHT22;21230;51.170;17.024;2023-06-10T06:54:47;19.70;99.90
35043;DHT22;21230;51.170;17.024;2023-06-10T06:57:13;19.80;99.90
35043;DHT22;21230;51.170;17.024;2023-06-10T06:59:39;19.90;99.90
35043;DHT22;21230;51.170;17.024;2023-06-10T07:02:05;20.00;99.90
35043;DHT22;21230;51.170;17.024;2023-06-10T07:04:31;20.00;99.90
35043;DHT22;21230;51.170;17.024;2023-06-10T07:06:56;20.00;99.90
35043;DHT22;21230;51.170;17.024;2023-06-10T07:09:22;20.10;99.90
35043;DHT22;21230;51.170;17.024;2023-06-10T07:11:48;20.10;99.90
35043;DHT22;21230;51.170;17.024;2023-06-10T07:14:13;20.20;99.90
35043;DHT22;21230;51.170;17.024;2023-06-10T07:16:39;20.20;99.90
35043;DHT22;21230;51.170;17.024;2023-06-10T07:19:05;20.30;99.90
35043;DHT22;21230;51.170;17.024;2023-06-10T07:21:30;20.40;99.90
35043;DHT22;21230;51.170;17.024;2023-06-10T07:23:57;20.40;99.90
35043;DHT22;21230;51.170;17.024;2023-06-10T07:26:23;20.40;99.90
35043;DHT22;21230;51.170;17.024;2023-06-10T07:28:49;20.40;99.90
35043;DHT22;21230;51.170;17.024;2023-06-10T07:31:15;20.50;99.90
35043;DHT22;21230;51.170;17.024;2023-06-10T07:33:40;20.60;99.90
35043;DHT22;21230;51.170;17.024;2023-06-10T07:36:06;20.70;99.90
35043;DHT22;21230;51.170;17.024;2023-06-10T07:38:32;20.80;99.90
35043;DHT22;21230;51.170;17.024;2023-06-10T07:40:58;20.90;99.90
35043;DHT22;21230;51.170;17.024;2023-06-10T07:43:24;20.90;99.90
35043;DHT22;21230;51.170;17.024;2023-06-10T07:45:50;20.80;99.90
35043;DHT22;21230;51.170;17.024;2023-06-10T07:48:15;20.90;99.90
35043;DHT22;21230;51.170;17.024;2023-06-10T07:50:41;21.00;99.90
35043;DHT22;21230;51.170;17.024;2023-06-10T07:53:06;21.00;99.90
35043;DHT22;21230;51.170;17.024;2023-06-10T07:55:32;21.00;99.90
35043;DHT22;21230;51.170;17.024;2023-06-10T07:57:58;21.00;99.90
35043;DHT22;21230;51.170;17.024;2023-06-10T08:00:24;21.00;99.90
35043;DHT22;21230;51.170;17.024;2023-06-10T08:02:49;20.90;99.90
35043;DHT22;21230;51.170;17.024;2023-06-10T08:05:16;20.80;99.90
35043;DHT22;21230;51.170;17.024;2023-06-10T08:07:41;20.80;99.90
35043;DHT22;21230;51.170;17.024;2023-06-10T08:10:07;20.90;99.90
35043;DHT22;21230;51.170;17.024;2023-06-10T08:12:34;21.00;99.90
35043;DHT22;21230;51.170;17.024;2023-06-10T08:15:01;21.10;99.90
35043;DHT22;21230;51.170;17.024;2023-06-10T08:17:32;21.10;99.90
35043;DHT22;21230;51.170;17.024;2023-06-10T08:19:58;21.20;99.90
35043;DHT22;21230;51.170;17.024;2023-06-10T08:22:24;21.10;99.90
35043;DHT22;21230;51.170;17.024;2023-06-10T08:24:52;21.40;99.90
35043;DHT22;21230;51.170;17.024;2023-06-10T08:27:18;21.60;99.90
35043;DHT22;21230;51.170;17.024;2023-06-10T08:29:44;21.80;99.90
35043;DHT22;21230;51.170;17.024;2023-06-10T08:32:10;22.00;99.90
35043;DHT22;21230;51.170;17.024;2023-06-10T08:34:37;22.00;99.90
35043;DHT22;21230;51.170;17.024;2023-06-10T08:37:03;21.90;99.90
35043;DHT22;21230;51.170;17.024;2023-06-10T08:39:29;21.80;99.90
35043;DHT22;21230;51.170;17.024;2023-06-10T08:44:36;21.90;99.90
35043;DHT22;21230;51.170;17.024;2023-06-10T08:47:06;21.80;99.90
35043;DHT22;21230;51.170;17.024;2023-06-10T08:49:34;21.80;99.90
35043;DHT22;21230;51.170;17.024;2023-06-10T08:52:02;21.80;99.90
35043;DHT22;21230;51.170;17.024;2023-06-10T08:54:30;21.80;99.90
35043;DHT22;21230;51.170;17.024;2023-06-10T08:56:57;21.70;99.90
35043;DHT22;21230;51.170;17.024;2023-06-10T08:59:24;21.70;99.90
35043;DHT22;21230;51.170;17.024;2023-06-10T09:01:51;21.80;99.90
35043;DHT22;21230;51.170;17.024;2023-06-10T09:04:18;21.90;99.90
35043;DHT22;21230;51.170;17.024;2023-06-10T09:06:44;21.90;99.90
35043;DHT22;21230;51.170;17.024;2023-06-10T09:09:11;21.90;99.90
35043;DHT22;21230;51.170;17.024;2023-06-10T09:11:37;22.10;99.90
35043;DHT22;21230;51.170;17.024;2023-06-10T09:14:03;22.20;99.90
35043;DHT22;21230;51.170;17.024;2023-06-10T09:16:29;22.30;99.90
35043;DHT22;21230;51.170;17.024;2023-06-10T09:18:55;22.30;99.90
35043;DHT22;21230;51.170;17.024;2023-06-10T09:21:25;22.40;99.90
35043;DHT22;21230;51.170;17.024;2023-06-10T09:23:51;22.60;99.90
35043;DHT22;21230;51.170;17.024;2023-06-10T09:26:17;22.80;99.90
35043;DHT22;21230;51.170;17.024;2023-06-10T09:28:44;23.10;99.90
35043;DHT22;21230;51.170;17.024;2023-06-10T09:31:09;23.20;99.90
35043;DHT22;21230;51.170;17.024;2023-06-10T09:33:38;23.50;99.90
35043;DHT22;21230;51.170;17.024;2023-06-10T09:36:05;23.80;99.90
35043;DHT22;21230;51.170;17.024;2023-06-10T09:38:32;23.90;99.90
35043;DHT22;21230;51.170;17.024;2023-06-10T09:41:00;23.90;99.50
35043;DHT22;21230;51.170;17.024;2023-06-10T09:43:43;23.80;99.90
35043;DHT22;21230;51.170;17.024;2023-06-10T09:46:16;23.80;99.90
35043;DHT22;21230;51.170;17.024;2023-06-10T09:48:44;23.80;96.70
35043;DHT22;21230;51.170;17.024;2023-06-10T09:51:10;23.80;96.50
35043;DHT22;21230;51.170;17.024;2023-06-10T09:53:36;23.90;95.60
35043;DHT22;21230;51.170;17.024;2023-06-10T09:56:02;23.80;92.50
35043;DHT22;21230;51.170;17.024;2023-06-10T09:58:38;23.60;93.80
35043;DHT22;21230;51.170;17.024;2023-06-10T10:01:05;23.80;95.50
35043;DHT22;21230;51.170;17.024;2023-06-10T10:03:31;24.20;94.50
35043;DHT22;21230;51.170;17.024;2023-06-10T10:05:58;24.30;93.30
35043;DHT22;21230;51.170;17.024;2023-06-10T10:08:26;24.50;94.10
35043;DHT22;21230;51.170;17.024;2023-06-10T10:10:52;24.20;89.30
35043;DHT22;21230;51.170;17.024;2023-06-10T10:13:19;24.00;91.90
35043;DHT22;21230;51.170;17.024;2023-06-10T10:15:44;24.20;94.90
35043;DHT22;21230;51.170;17.024;2023-06-10T10:18:11;24.00;92.10
35043;DHT22;21230;51.170;17.024;2023-06-10T10:20:46;24.10;93.20
35043;DHT22;21230;51.170;17.024;2023-06-10T10:23:13;24.30;90.40
35043;DHT22;21230;51.170;17.024;2023-06-10T10:25:40;24.50;90.90
35043;DHT22;21230;51.170;17.024;2023-06-10T10:28:08;24.50;82.30
35043;DHT22;21230;51.170;17.024;2023-06-10T10:33:42;24.50;81.30
35043;DHT22;21230;51.170;17.024;2023-06-10T10:35:59;24.50;79.30
35043;DHT22;21230;51.170;17.024;2023-06-10T10:38:26;24.60;77.00
35043;DHT22;21230;51.170;17.024;2023-06-10T10:40:54;24.70;75.50
35043;DHT22;21230;51.170;17.024;2023-06-10T10:43:25;24.70;70.80
35043;DHT22;21230;51.170;17.024;2023-06-10T10:45:58;24.70;71.20
35043;DHT22;21230;51.170;17.024;2023-06-10T10:48:24;24.80;67.00
35043;DHT22;21230;51.170;17.024;2023-06-10T10:50:57;24.90;70.80
35043;DHT22;21230;51.170;17.024;2023-06-10T10:53:24;25.00;66.20
35043;DHT22;21230;51.170;17.024;2023-06-10T10:56:06;25.00;65.00
35043;DHT22;21230;51.170;17.024;2023-06-10T10:58:37;25.20;63.20
35043;DHT22;21230;51.170;17.024;2023-06-10T11:01:11;25.30;65.20
35043;DHT22;21230;51.170;17.024;2023-06-10T11:03:42;25.40;56.20
35043;DHT22;21230;51.170;17.024;2023-06-10T11:06:11;25.50;56.30
35043;DHT22;21230;51.170;17.024;2023-06-10T11:16:26;25.40;48.60
35043;DHT22;21230;51.170;17.024;2023-06-10T11:18:53;25.40;50.70
35043;DHT22;21230;51.170;17.024;2023-06-10T11:21:19;25.50;49.70
35043;DHT22;21230;51.170;17.024;2023-06-10T11:23:45;25.60;47.50
35043;DHT22;21230;51.170;17.024;2023-06-10T11:29:03;25.70;46.80
35043;DHT22;21230;51.170;17.024;2023-06-10T11:31:30;25.60;43.30
35043;DHT22;21230;51.170;17.024;2023-06-10T11:34:01;25.70;43.80
35043;DHT22;21230;51.170;17.024;2023-06-10T11:36:28;25.70;42.20
35043;DHT22;21230;51.170;17.024;2023-06-10T11:41:26;25.80;43.80
35043;DHT22;21230;51.170;17.024;2023-06-10T11:43:53;25.90;41.50
35043;DHT22;21230;51.170;17.024;2023-06-10T11:46:24;26.10;40.40
35043;DHT22;21230;51.170;17.024;2023-06-10T11:48:54;26.20;39.20
35043;DHT22;21230;51.170;17.024;2023-06-10T11:51:20;26.30;38.00
35043;DHT22;21230;51.170;17.024;2023-06-10T11:54:00;26.40;38.00
35043;DHT22;21230;51.170;17.024;2023-06-10T11:56:27;26.50;40.20
35043;DHT22;21230;51.170;17.024;2023-06-10T11:58:53;26.60;35.20
35043;DHT22;21230;51.170;17.024;2023-06-10T12:01:24;26.70;32.40
35043;DHT22;21230;51.170;17.024;2023-06-10T12:09:05;26.50;31.40
35043;DHT22;21230;51.170;17.024;2023-06-10T12:11:31;26.60;33.10
35043;DHT22;21230;51.170;17.024;2023-06-10T12:13:57;26.70;30.20
35043;DHT22;21230;51.170;17.024;2023-06-10T12:16:22;26.80;31.60
35043;DHT22;21230;51.170;17.024;2023-06-10T12:18:48;26.60;28.30
35043;DHT22;21230;51.170;17.024;2023-06-10T12:26:48;26.00;30.50
35043;DHT22;21230;51.170;17.024;2023-06-10T12:34:28;26.00;28.30
35043;DHT22;21230;51.170;17.024;2023-06-10T12:36:57;25.90;29.20
35043;DHT22;21230;51.170;17.024;2023-06-10T12:39:23;25.90;30.00
35043;DHT22;21230;51.170;17.024;2023-06-10T12:41:48;26.00;29.70
35043;DHT22;21230;51.170;17.024;2023-06-10T12:44:15;26.20;29.70
35043;DHT22;21230;51.170;17.024;2023-06-10T12:46:40;26.20;27.50
35043;DHT22;21230;51.170;17.024;2023-06-10T12:49:07;26.00;28.40
35043;DHT22;21230;51.170;17.024;2023-06-10T12:51:33;26.00;27.30
35043;DHT22;21230;51.170;17.024;2023-06-10T12:54:01;26.10;27.00
35043;DHT22;21230;51.170;17.024;2023-06-10T12:56:26;26.10;26.30
35043;DHT22;21230;51.170;17.024;2023-06-10T12:58:52;26.10;25.50
35043;DHT22;21230;51.170;17.024;2023-06-10T13:01:18;26.10;24.20
35043;DHT22;21230;51.170;17.024;2023-06-10T13:03:43;26.20;25.00
35043;DHT22;21230;51.170;17.024;2023-06-10T13:06:09;26.30;25.00
35043;DHT22;21230;51.170;17.024;2023-06-10T13:08:35;26.20;24.00
35043;DHT22;21230;51.170;17.024;2023-06-10T13:11:00;26.20;24.00
35043;DHT22;21230;51.170;17.024;2023-06-10T13:13:26;26.20;24.50
35043;DHT22;21230;51.170;17.024;2023-06-10T13:15:52;26.20;24.10
35043;DHT22;21230;51.170;17.024;2023-06-10T13:18:18;26.20;24.40
35043;DHT22;21230;51.170;17.024;2023-06-10T13:20:44;26.10;23.40
35043;DHT22;21230;51.170;17.024;2023-06-10T13:23:09;26.10;25.10
35043;DHT22;21230;51.170;17.024;2023-06-10T13:25:35;26.10;23.40
35043;DHT22;21230;51.170;17.024;2023-06-10T13:28:01;26.10;24.20
35043;DHT22;21230;51.170;17.024;2023-06-10T13:30:27;26.20;23.70
35043;DHT22;21230;51.170;17.024;2023-06-10T13:32:53;26.20;24.80
35043;DHT22;21230;51.170;17.024;2023-06-10T13:35:19;26.10;20.30
35043;DHT22;21230;51.170;17.024;2023-06-10T13:37:44;26.00;22.00
35043;DHT22;21230;51.170;17.024;2023-06-10T13:40:10;26.00;20.80
35043;DHT22;21230;51.170;17.024;2023-06-10T13:42:37;25.90;20.90
35043;DHT22;21230;51.170;17.024;2023-06-10T13:45:03;26.00;21.20
35043;DHT22;21230;51.170;17.024;2023-06-10T13:47:29;26.00;22.10
35043;DHT22;21230;51.170;17.024;2023-06-10T13:49:55;26.00;20.10
35043;DHT22;21230;51.170;17.024;2023-06-10T13:52:20;26.00;20.00
35043;DHT22;21230;51.170;17.024;2023-06-10T13:54:46;26.00;20.80
35043;DHT22;21230;51.170;17.024;2023-06-10T13:57:12;26.00;19.80
35043;DHT22;21230;51.170;17.024;2023-06-10T13:59:37;26.00;20.70
35043;DHT22;21230;51.170;17.024;2023-06-10T14:02:03;26.10;21.10
35043;DHT22;21230;51.170;17.024;2023-06-10T14:04:29;26.20;22.90
35043;DHT22;21230;51.170;17.024;2023-06-10T14:06:55;26.20;19.80
35043;DHT22;21230;51.170;17.024;2023-06-10T14:09:22;26.20;20.90
35043;DHT22;21230;51.170;17.024;2023-06-10T14:11:48;26.20;19.60
35043;DHT22;21230;51.170;17.024;2023-06-10T14:14:14;26.20;19.80
35043;DHT22;21230;51.170;17.024;2023-06-10T14:16:40;26.30;18.80
35043;DHT22;21230;51.170;17.024;2023-06-10T14:19:05;26.30;18.00
35043;DHT22;21230;51.170;17.024;2023-06-10T14:21:31;26.20;17.80
35043;DHT22;21230;51.170;17.024;2023-06-10T14:23:57;26.20;18.60
35043;DHT22;21230;51.170;17.024;2023-06-10T14:26:22;26.10;18.20
35043;DHT22;21230;51.170;17.024;2023-06-10T14:28:48;26.10;17.80
35043;DHT22;21230;51.170;17.024;2023-06-10T14:31:15;25.90;16.90
35043;DHT22;21230;51.170;17.024;2023-06-10T14:33:40;25.90;16.70
35043;DHT22;21230;51.170;17.024;2023-06-10T14:36:08;25.80;16.80
35043;DHT22;21230;51.170;17.024;2023-06-10T14:38:34;25.80;16.90
35043;DHT22;21230;51.170;17.024;2023-06-10T14:41:00;25.80;16.70
35043;DHT22;21230;51.170;17.024;2023-06-10T14:43:25;25.80;17.20
35043;DHT22;21230;51.170;17.024;2023-06-10T14:45:51;25.90;17.60
35043;DHT22;21230;51.170;17.024;2023-06-10T14:48:17;26.00;17.70
35043;DHT22;21230;51.170;17.024;2023-06-10T14:50:43;26.10;17.10
35043;DHT22;21230;51.170;17.024;2023-06-10T14:53:12;26.10;16.00
35043;DHT22;21230;51.170;17.024;2023-06-10T14:55:37;26.00;16.10
35043;DHT22;21230;51.170;17.024;2023-06-10T14:58:03;26.00;17.10
35043;DHT22;21230;51.170;17.024;2023-06-10T15:00:29;26.00;17.20
35043;DHT22;21230;51.170;17.024;2023-06-10T15:02:56;26.00;16.20
35043;DHT22;21230;51.170;17.024;2023-06-10T15:05:23;25.90;16.50
35043;DHT22;21230;51.170;17.024;2023-06-10T15:07:48;26.10;17.60
35043;DHT22;21230;51.170;17.024;2023-06-10T15:10:14;26.00;16.40
35043;DHT22;21230;51.170;17.024;2023-06-10T15:12:41;26.00;17.40
35043;DHT22;21230;51.170;17.024;2023-06-10T15:15:07;26.10;16.90
35043;DHT22;21230;51.170;17.024;2023-06-10T15:17:32;26.10;16.10
35043;DHT22;21230;51.170;17.024;2023-06-10T15:19:58;26.00;16.70
35043;DHT22;21230;51.170;17.024;2023-06-10T15:22:24;26.10;18.50
35043;DHT22;21230;51.170;17.024;2023-06-10T15:24:49;26.10;17.60
35043;DHT22;21230;51.170;17.024;2023-06-10T15:27:16;26.00;17.80
35043;DHT22;21230;51.170;17.024;2023-06-10T15:29:43;26.00;18.00
35043;DHT22;21230;51.170;17.024;2023-06-10T15:32:09;25.90;17.40
35043;DHT22;21230;51.170;17.024;2023-06-10T15:34:34;25.70;17.30
35043;DHT22;21230;51.170;17.024;2023-06-10T15:37:01;25.80;16.40
35043;DHT22;21230;51.170;17.024;2023-06-10T15:39:26;25.80;16.10
35043;DHT22;21230;51.170;17.024;2023-06-10T15:41:52;25.70;15.90
35043;DHT22;21230;51.170;17.024;2023-06-10T15:44:18;25.70;15.80
35043;DHT22;21230;51.170;17.024;2023-06-10T15:46:44;25.80;15.50